createdAt,value
2023-05-10T00:00:52.604Z,14.38
2023-05-10T00:03:19.316Z,14.03
2023-05-10T00:05:46.642Z,15.10
2023-05-10T00:08:14.658Z,16.40
2023-05-10T00:10:41.196Z,16.65
2023-05-10T00:13:08.049Z,16.67
2023-05-10T00:15:34.851Z,17.60
2023-05-10T00:18:01.425Z,18.23
2023-05-10T00:20:28.137Z,19.33
2023-05-10T00:22:54.688Z,19.33
2023-05-10T00:25:21.228Z,20.88
2023-05-10T00:27:47.871Z,21.37
2023-05-10T00:30:14.732Z,21.73
2023-05-10T00:32:41.541Z,20.65
2023-05-10T00:35:09.594Z,21.80
2023-05-10T00:37:36.237Z,21.95
2023-05-10T00:40:02.887Z,20.77
2023-05-10T00:42:29.414Z,21.10
2023-05-10T00:44:56.087Z,22.02
2023-05-10T00:47:23.652Z,22.52
2023-05-10T00:49:51.802Z,22.38
2023-05-10T00:52:18.364Z,23.37
2023-05-10T00:54:45.098Z,23.33
2023-05-10T00:57:12.065Z,23.88
2023-05-10T00:59:38.734Z,24.52
2023-05-10T01:02:06.340Z,23.40
2023-05-10T01:04:33.426Z,23.73
2023-05-10T01:06:59.986Z,22.92
2023-05-10T01:09:26.708Z,22.42
2023-05-10T01:11:54.468Z,21.65
2023-05-10T01:14:24.432Z,20.45
2023-05-10T01:16:51.400Z,21.17
2023-05-10T01:19:24.632Z,19.92
2023-05-10T01:22:11.542Z,18.95
2023-05-10T01:25:05.626Z,18.17
2023-05-10T01:27:37.811Z,17.58
2023-05-10T01:30:28.184Z,17.40
2023-05-10T01:32:54.860Z,17.10
2023-05-10T01:35:38.443Z,17.00
2023-05-10T01:38:11.178Z,17.05
2023-05-10T01:40:53.443Z,16.60
2023-05-10T01:43:27.197Z,16.03
2023-05-10T01:46:00.703Z,16.65
2023-05-10T01:48:29.744Z,16.05
2023-05-10T01:50:57.856Z,16.70
2023-05-10T01:53:27.364Z,16.02
2023-05-10T01:55:56.234Z,17.60
2023-05-10T01:58:30.869Z,16.48
2023-05-10T02:01:01.055Z,16.27
2023-05-10T02:03:29.098Z,15.57
2023-05-10T02:05:57.331Z,16.08
2023-05-10T02:08:24.941Z,16.70
2023-05-10T02:10:53.384Z,15.80
2023-05-10T02:13:20.755Z,15.60
2023-05-10T02:15:52.192Z,15.63
2023-05-10T02:18:19.436Z,16.00
2023-05-10T02:20:48.228Z,15.13
2023-05-10T02:23:16.784Z,15.57
2023-05-10T02:25:44.838Z,16.25
2023-05-10T02:28:13.358Z,15.77
2023-05-10T02:30:40.271Z,15.80
2023-05-10T02:33:07.562Z,17.07
2023-05-10T02:35:36.107Z,16.70
2023-05-10T02:38:03.423Z,17.23
2023-05-10T02:40:31.119Z,18.08
2023-05-10T02:43:00.422Z,17.95
2023-05-10T02:45:31.180Z,16.60
2023-05-10T02:47:58.038Z,16.77
2023-05-10T02:50:28.946Z,16.70
2023-05-10T02:53:01.741Z,16.27
2023-05-10T02:55:37.433Z,15.55
2023-05-10T02:58:05.004Z,15.77
2023-05-10T03:00:32.612Z,16.25
2023-05-10T03:02:59.534Z,16.48
2023-05-10T03:05:26.102Z,15.07
2023-05-10T03:07:53.618Z,15.98
2023-05-10T03:10:21.706Z,16.30
2023-05-10T03:13:08.689Z,16.45
2023-05-10T03:16:03.680Z,16.55
2023-05-10T03:18:43.567Z,15.77
2023-05-10T03:21:12.383Z,14.95
2023-05-10T03:23:51.287Z,16.50
2023-05-10T03:26:28.638Z,16.90
2023-05-10T03:28:56.383Z,16.77
2023-05-10T03:31:23.297Z,16.40
2023-05-10T03:33:50.914Z,17.85
2023-05-10T03:36:18.233Z,16.67
2023-05-10T03:38:44.842Z,17.02
2023-05-10T03:41:11.898Z,18.27
2023-05-10T03:43:38.532Z,17.38
2023-05-10T03:46:06.140Z,16.30
2023-05-10T03:48:36.280Z,14.43
2023-05-10T03:51:02.978Z,14.80
2023-05-10T03:53:29.472Z,15.23
2023-05-10T03:55:55.990Z,16.30
2023-05-10T03:58:23.046Z,16.33
2023-05-10T04:00:49.787Z,17.07
2023-05-10T04:03:16.550Z,17.95
2023-05-10T04:05:43.025Z,18.20
2023-05-10T04:08:09.760Z,18.40
2023-05-10T04:10:36.590Z,19.48
2023-05-10T04:13:03.213Z,19.10
2023-05-10T04:15:29.763Z,20.25
2023-05-10T04:17:56.335Z,19.67
2023-05-10T04:20:22.998Z,20.40
2023-05-10T04:22:49.427Z,20.23
2023-05-10T04:25:16.591Z,19.70
2023-05-10T04:27:43.695Z,20.77
2023-05-10T04:30:10.534Z,20.88
2023-05-10T04:32:37.101Z,22.98
2023-05-10T04:35:03.796Z,24.48
2023-05-10T04:37:30.532Z,24.20
2023-05-10T04:39:57.164Z,25.02
2023-05-10T04:42:23.715Z,24.45
2023-05-10T04:44:50.135Z,25.42
2023-05-10T04:47:16.665Z,23.33
2023-05-10T04:49:43.155Z,22.23
2023-05-10T04:52:09.799Z,21.80
2023-05-10T04:54:36.516Z,19.95
2023-05-10T04:57:03.048Z,19.88
2023-05-10T04:59:29.931Z,19.17
2023-05-10T05:01:56.618Z,18.47
2023-05-10T05:04:23.143Z,17.55
2023-05-10T05:06:51.704Z,18.52
2023-05-10T05:09:20.178Z,16.98
2023-05-10T05:11:47.158Z,16.55
2023-05-10T05:14:13.990Z,15.03
2023-05-10T05:16:40.762Z,14.43
2023-05-10T05:19:07.359Z,13.68
2023-05-10T05:21:33.941Z,12.48
2023-05-10T05:24:00.592Z,10.52
2023-05-10T05:26:27.660Z,11.43
2023-05-10T05:28:54.329Z,10.55
2023-05-10T05:31:21.519Z,9.82
2023-05-10T05:33:48.287Z,9.85
2023-05-10T05:36:14.967Z,9.57
2023-05-10T05:38:41.548Z,9.37
2023-05-10T05:41:08.302Z,8.88
2023-05-10T05:43:37.520Z,9.20
2023-05-10T05:46:05.464Z,8.50
2023-05-10T05:48:32.293Z,8.70
2023-05-10T05:50:59.140Z,8.03
2023-05-10T05:53:25.769Z,9.02
2023-05-10T05:55:54.649Z,8.07
2023-05-10T05:58:22.445Z,8.13
2023-05-10T06:00:49.622Z,7.70
2023-05-10T06:03:16.316Z,7.30
2023-05-10T06:05:43.123Z,7.22
2023-05-10T06:08:09.724Z,7.13
2023-05-10T06:10:37.217Z,6.70
2023-05-10T06:13:03.842Z,6.55
2023-05-10T06:15:31.398Z,6.80
2023-05-10T06:17:58.053Z,6.80
2023-05-10T06:20:25.363Z,7.30
2023-05-10T06:22:52.150Z,7.25
2023-05-10T06:25:19.784Z,6.65
2023-05-10T06:27:51.778Z,6.87
2023-05-10T06:30:20.207Z,7.03
2023-05-10T06:32:47.607Z,7.25
2023-05-10T06:35:14.477Z,7.50
2023-05-10T06:37:41.886Z,7.22
2023-05-10T06:40:08.853Z,7.73
2023-05-10T06:42:35.361Z,7.72
2023-05-10T06:45:01.924Z,8.02
2023-05-10T06:47:28.425Z,8.20
2023-05-10T06:49:54.977Z,8.43
2023-05-10T06:52:21.509Z,8.07
2023-05-10T06:54:48.384Z,8.20
2023-05-10T06:57:27.573Z,8.60
2023-05-10T06:59:58.617Z,8.82
2023-05-10T07:02:26.375Z,8.43
2023-05-10T07:04:53.453Z,8.90
2023-05-10T07:07:20.621Z,8.65
2023-05-10T07:09:47.609Z,8.90
2023-05-10T07:12:15.210Z,9.18
2023-05-10T07:14:43.400Z,9.43
2023-05-10T07:17:11.189Z,8.03
2023-05-10T07:19:38.054Z,8.88
2023-05-10T07:22:04.750Z,8.50
2023-05-10T07:24:31.319Z,8.85
2023-05-10T07:26:57.779Z,9.85
2023-05-10T07:29:24.501Z,8.60
2023-05-10T07:31:51.197Z,8.40
2023-05-10T07:34:18.019Z,8.00
2023-05-10T07:36:44.606Z,7.20
2023-05-10T07:39:12.724Z,7.90
2023-05-10T07:41:42.926Z,8.97
2023-05-10T07:44:09.529Z,8.60
2023-05-10T07:46:36.307Z,8.27
2023-05-10T07:49:02.831Z,8.18
2023-05-10T07:51:29.469Z,8.15
2023-05-10T07:53:56.145Z,8.10
2023-05-10T07:56:30.968Z,7.20
2023-05-10T07:58:57.674Z,6.85
2023-05-10T08:01:24.726Z,6.93
2023-05-10T08:03:51.493Z,6.97
2023-05-10T08:06:19.644Z,7.00
2023-05-10T08:08:50.274Z,7.03
2023-05-10T08:11:21.317Z,6.97
2023-05-10T08:13:49.077Z,6.93
2023-05-10T08:16:16.016Z,7.38
2023-05-10T08:18:42.607Z,8.83
2023-05-10T08:21:09.295Z,8.65
2023-05-10T08:23:35.946Z,8.45
2023-05-10T08:26:02.487Z,7.97
2023-05-10T08:28:29.010Z,6.57
2023-05-10T08:30:55.584Z,6.37
2023-05-10T08:33:22.283Z,5.65
2023-05-10T08:35:49.431Z,5.45
2023-05-10T08:38:16.045Z,4.97
2023-05-10T08:40:44.342Z,4.82
2023-05-10T08:43:12.923Z,4.40
2023-05-10T08:45:41.446Z,4.65
2023-05-10T08:48:09.771Z,4.85
2023-05-10T08:50:43.112Z,4.25
2023-05-10T08:53:14.412Z,5.00
2023-05-10T08:55:42.997Z,4.73
2023-05-10T08:58:10.416Z,4.90
2023-05-10T09:00:37.955Z,4.63
2023-05-10T09:03:06.218Z,5.50
2023-05-10T09:05:32.908Z,5.05
2023-05-10T09:07:59.572Z,5.60
2023-05-10T09:10:27.378Z,5.20
2023-05-10T09:12:57.981Z,5.95
2023-05-10T09:15:25.840Z,5.40
2023-05-10T09:17:52.462Z,5.38
2023-05-10T09:20:19.378Z,5.60
2023-05-10T09:22:46.307Z,5.45
2023-05-10T09:25:16.594Z,4.97
2023-05-10T09:27:49.024Z,4.25
2023-05-10T09:30:25.668Z,3.90
2023-05-10T09:32:53.186Z,3.80
2023-05-10T09:35:27.204Z,3.90
2023-05-10T09:37:58.978Z,3.50
2023-05-10T09:40:29.017Z,3.35
2023-05-10T09:42:59.556Z,3.97
2023-05-10T09:45:28.460Z,3.97
2023-05-10T09:47:56.095Z,4.15
2023-05-10T09:50:24.978Z,4.07
2023-05-10T09:52:51.485Z,3.47
2023-05-10T09:55:22.718Z,3.83
2023-05-10T09:57:50.327Z,3.57
2023-05-10T10:00:21.021Z,3.38
2023-05-10T10:02:55.237Z,3.55
2023-05-10T10:05:22.009Z,4.03
2023-05-10T10:07:48.749Z,3.72
2023-05-10T10:10:15.382Z,3.50
2023-05-10T10:12:42.659Z,3.90
2023-05-10T10:15:09.955Z,3.75
2023-05-10T10:17:37.737Z,3.60
2023-05-10T10:20:04.729Z,3.90
2023-05-10T10:22:31.442Z,3.47
2023-05-10T10:24:58.356Z,4.05
2023-05-10T10:27:34.710Z,4.15
2023-05-10T10:30:13.365Z,4.50
2023-05-10T10:32:58.514Z,4.53
2023-05-10T10:35:25.337Z,4.10
2023-05-10T10:37:52.235Z,4.40
2023-05-10T10:40:28.604Z,4.28
2023-05-10T10:42:56.070Z,4.38
2023-05-10T10:45:23.917Z,4.40
2023-05-10T10:48:14.420Z,4.47
2023-05-10T10:50:47.380Z,4.15
2023-05-10T10:53:14.100Z,4.50
2023-05-10T10:55:50.196Z,4.28
2023-05-10T10:58:32.694Z,4.07
2023-05-10T11:01:13.635Z,4.53
2023-05-10T11:03:40.239Z,4.53
2023-05-10T11:06:07.249Z,5.10
2023-05-10T11:08:37.569Z,4.70
2023-05-10T11:11:07.320Z,4.32
2023-05-10T11:13:41.816Z,4.67
2023-05-10T11:16:13.894Z,4.45
2023-05-10T11:18:40.963Z,4.43
2023-05-10T11:21:10.351Z,4.70
2023-05-10T11:23:55.825Z,4.60
2023-05-10T11:26:23.567Z,4.37
2023-05-10T11:28:50.312Z,3.95
2023-05-10T11:31:18.930Z,3.70
2023-05-10T11:33:50.528Z,3.17
2023-05-10T11:36:23.289Z,2.90
2023-05-10T11:38:50.290Z,2.70
2023-05-10T11:41:19.711Z,3.47
2023-05-10T11:43:54.199Z,3.28
2023-05-10T11:46:22.673Z,2.92
2023-05-10T11:48:59.065Z,3.20
2023-05-10T11:51:26.333Z,3.00
2023-05-10T11:53:57.947Z,3.35
2023-05-10T11:56:24.725Z,3.10
2023-05-10T11:58:56.170Z,2.80
2023-05-10T12:01:23.542Z,3.03
2023-05-10T12:03:51.861Z,3.10
2023-05-10T12:06:20.048Z,3.80
2023-05-10T12:08:48.757Z,4.20
2023-05-10T12:11:15.516Z,4.28
2023-05-10T12:13:44.437Z,4.70
2023-05-10T12:16:33.980Z,4.73
2023-05-10T12:19:01.903Z,5.07
2023-05-10T12:21:31.539Z,5.50
2023-05-10T12:24:03.820Z,6.30
2023-05-10T12:26:30.619Z,5.72
2023-05-10T12:29:13.764Z,5.50
2023-05-10T12:32:10.063Z,4.93
2023-05-10T12:34:37.337Z,4.75
2023-05-10T12:37:04.632Z,4.72
2023-05-10T12:39:45.174Z,4.50
2023-05-10T12:42:11.907Z,4.37
2023-05-10T12:44:38.538Z,4.28
2023-05-10T12:47:05.148Z,3.63
2023-05-10T12:49:31.911Z,3.05
2023-05-10T12:51:58.523Z,3.28
2023-05-10T12:54:24.991Z,3.27
2023-05-10T12:56:51.589Z,3.40
2023-05-10T12:59:18.382Z,3.25
2023-05-10T13:01:44.985Z,3.15
2023-05-10T13:04:11.646Z,2.97
2023-05-10T13:06:38.497Z,3.47
2023-05-10T13:09:05.087Z,3.58
2023-05-10T13:11:31.717Z,3.80
2023-05-10T13:13:58.661Z,3.40
2023-05-10T13:16:25.204Z,3.50
2023-05-10T13:18:51.857Z,3.90
2023-05-10T13:21:18.382Z,3.50
2023-05-10T13:23:44.868Z,3.80
2023-05-10T13:26:11.383Z,3.65
2023-05-10T13:28:37.854Z,3.83
2023-05-10T13:31:04.388Z,3.90
2023-05-10T13:33:31.032Z,3.83
2023-05-10T13:35:57.675Z,4.03
2023-05-10T13:38:24.207Z,4.03
2023-05-10T13:40:50.750Z,4.30
2023-05-10T13:43:17.287Z,4.40
2023-05-10T13:45:43.768Z,4.32
2023-05-10T13:48:10.351Z,5.03
2023-05-10T13:50:37.072Z,4.88
2023-05-10T13:53:03.770Z,4.82
2023-05-10T13:55:30.233Z,4.97
2023-05-10T13:57:56.770Z,5.07
2023-05-10T14:00:24.373Z,5.72
2023-05-10T14:02:50.966Z,5.47
2023-05-10T14:05:19.312Z,5.55
2023-05-10T14:07:48.902Z,5.33
2023-05-10T14:10:15.484Z,5.55
2023-05-10T14:12:42.122Z,6.18
2023-05-10T14:15:09.002Z,5.82
2023-05-10T14:17:35.614Z,6.20
2023-05-10T14:20:02.482Z,6.20
2023-05-10T14:22:29.101Z,5.93
2023-05-10T14:24:55.577Z,5.93
2023-05-10T14:27:22.353Z,6.22
2023-05-10T14:29:49.169Z,6.97
2023-05-10T14:32:16.103Z,6.67
2023-05-10T14:34:43.007Z,6.78
2023-05-10T14:37:12.288Z,7.10
2023-05-10T14:39:38.999Z,7.35
2023-05-10T14:42:05.601Z,7.85
2023-05-10T14:44:32.448Z,7.83
2023-05-10T14:46:59.294Z,8.07
2023-05-10T14:49:26.053Z,7.57
2023-05-10T14:51:53.271Z,5.72
2023-05-10T14:54:19.999Z,5.55
2023-05-10T14:56:46.543Z,5.07
2023-05-10T14:59:13.050Z,4.95
2023-05-10T15:01:39.880Z,4.90
2023-05-10T15:04:06.959Z,4.82
2023-05-10T15:06:36.922Z,5.07
2023-05-10T15:09:03.924Z,6.63
2023-05-10T15:11:30.718Z,10.63
2023-05-10T15:13:57.174Z,12.27
2023-05-10T15:16:24.040Z,12.25
2023-05-10T15:18:51.220Z,12.77
2023-05-10T15:21:18.224Z,11.67
2023-05-10T15:23:44.656Z,11.88
2023-05-10T15:26:11.425Z,11.93
2023-05-10T15:28:37.925Z,10.68
2023-05-10T15:31:04.483Z,10.57
2023-05-10T15:33:31.110Z,10.90
2023-05-10T15:35:57.781Z,11.07
2023-05-10T15:38:24.270Z,11.18
2023-05-10T15:40:50.706Z,11.90
2023-05-10T15:43:17.299Z,11.77
2023-05-10T15:45:43.766Z,10.90
2023-05-10T15:48:10.569Z,11.93
2023-05-10T15:50:37.180Z,12.15
2023-05-10T15:53:03.720Z,11.57
2023-05-10T15:55:30.225Z,11.63
2023-05-10T15:57:56.708Z,9.47
2023-05-10T16:00:23.615Z,9.90
2023-05-10T16:02:52.763Z,9.30
2023-05-10T16:05:19.988Z,9.30
2023-05-10T16:07:46.804Z,8.75
2023-05-10T16:10:13.456Z,7.97
2023-05-10T16:12:40.392Z,6.90
2023-05-10T16:15:08.156Z,6.85
2023-05-10T16:17:35.403Z,6.22
2023-05-10T16:20:02.167Z,5.43
2023-05-10T16:22:28.729Z,5.13
2023-05-10T16:24:56.683Z,5.00
2023-05-10T16:27:23.236Z,5.20
2023-05-10T16:29:49.975Z,5.47
2023-05-10T16:32:16.486Z,5.18
2023-05-10T16:34:42.990Z,5.20
2023-05-10T16:37:09.534Z,5.43
2023-05-10T16:39:36.318Z,5.40
2023-05-10T16:42:02.906Z,5.82
2023-05-10T16:44:29.652Z,5.68
2023-05-10T16:46:56.209Z,6.23
2023-05-10T16:49:25.273Z,6.88
2023-05-10T16:51:52.521Z,6.93
2023-05-10T16:54:19.365Z,7.10
2023-05-10T16:56:46.669Z,7.20
2023-05-10T16:59:13.263Z,6.33
2023-05-10T17:01:39.808Z,6.38
2023-05-10T17:04:06.455Z,6.88
2023-05-10T17:06:33.064Z,6.50
2023-05-10T17:08:59.843Z,6.80
2023-05-10T17:11:26.354Z,7.07
2023-05-10T17:13:52.918Z,7.13
2023-05-10T17:16:19.853Z,7.97
2023-05-10T17:18:46.429Z,8.77
2023-05-10T17:21:13.001Z,7.68
2023-05-10T17:23:39.745Z,8.10
2023-05-10T17:26:06.773Z,8.50
2023-05-10T17:28:33.229Z,8.48
2023-05-10T17:31:00.055Z,8.25
2023-05-10T17:33:26.675Z,8.18
2023-05-10T17:35:53.468Z,8.03
2023-05-10T17:38:20.253Z,8.85
2023-05-10T17:40:46.732Z,8.30
2023-05-10T17:43:13.378Z,8.50
2023-05-10T17:45:39.958Z,8.02
2023-05-10T17:48:06.461Z,7.27
2023-05-10T17:50:33.258Z,7.82
2023-05-10T17:52:59.825Z,7.32
2023-05-10T17:55:26.358Z,7.80
2023-05-10T17:57:52.851Z,7.72
2023-05-10T18:00:19.592Z,8.33
2023-05-10T18:02:46.126Z,8.23
2023-05-10T18:05:13.123Z,8.13
2023-05-10T18:07:39.923Z,8.57
2023-05-10T18:10:06.994Z,9.40
2023-05-10T18:12:33.432Z,8.50
2023-05-10T18:15:00.205Z,9.32
2023-05-10T18:17:26.934Z,9.18
2023-05-10T18:19:53.501Z,8.85
2023-05-10T18:22:20.348Z,9.38
2023-05-10T18:24:47.111Z,9.30
2023-05-10T18:27:13.611Z,9.38
2023-05-10T18:29:40.109Z,9.57
2023-05-10T18:32:06.863Z,9.32
2023-05-10T18:34:33.576Z,9.82
2023-05-10T18:37:00.190Z,10.37
2023-05-10T18:39:26.903Z,9.98
2023-05-10T18:41:53.675Z,10.30
2023-05-10T18:44:20.941Z,10.40
2023-05-10T18:46:47.549Z,9.98
2023-05-10T18:49:15.302Z,10.83
2023-05-10T18:51:41.770Z,10.88
2023-05-10T18:54:08.772Z,9.93
2023-05-10T18:56:35.291Z,10.25
2023-05-10T18:59:01.856Z,10.90
2023-05-10T19:01:28.337Z,9.97
2023-05-10T19:03:54.965Z,10.13
2023-05-10T19:06:21.847Z,9.73
2023-05-10T19:08:48.354Z,10.35
2023-05-10T19:11:15.114Z,10.30
2023-05-10T19:13:41.551Z,10.57
2023-05-10T19:16:14.260Z,11.18
2023-05-10T19:18:41.097Z,10.50
2023-05-10T19:21:08.489Z,11.07
2023-05-10T19:23:35.776Z,10.68
2023-05-10T19:26:02.299Z,10.37
2023-05-10T19:28:29.042Z,10.85
2023-05-10T19:30:55.950Z,11.73
2023-05-10T19:33:22.803Z,12.07
2023-05-10T19:35:52.945Z,12.32
2023-05-10T19:38:21.552Z,11.57
2023-05-10T19:40:49.200Z,12.00
2023-05-10T19:43:16.607Z,12.50
2023-05-10T19:45:43.046Z,12.32
2023-05-10T19:48:10.831Z,12.48
2023-05-10T19:50:38.578Z,12.23
2023-05-10T19:53:05.086Z,12.48
2023-05-10T19:55:32.545Z,12.95
2023-05-10T19:57:59.700Z,12.57
2023-05-10T20:00:26.694Z,12.35
2023-05-10T20:02:53.730Z,11.60
2023-05-10T20:05:21.227Z,11.68
2023-05-10T20:07:48.031Z,13.05
2023-05-10T20:10:14.617Z,12.25
2023-05-10T20:12:41.246Z,11.70
2023-05-10T20:15:08.280Z,12.30
2023-05-10T20:17:35.671Z,11.45
2023-05-10T20:20:02.803Z,12.02
2023-05-10T20:22:29.514Z,11.95
2023-05-10T20:24:56.384Z,12.45
2023-05-10T20:27:22.982Z,12.10
2023-05-10T20:29:49.521Z,12.23
2023-05-10T20:32:15.948Z,12.80
2023-05-10T20:34:42.838Z,12.57
2023-05-10T20:37:09.349Z,12.18
2023-05-10T20:39:35.973Z,12.23
2023-05-10T20:42:02.554Z,12.48
2023-05-10T20:44:29.309Z,12.30
2023-05-10T20:46:56.011Z,13.23
2023-05-10T20:49:22.973Z,13.02
2023-05-10T20:51:49.728Z,12.70
2023-05-10T20:54:16.321Z,12.70
2023-05-10T20:56:42.885Z,13.38
2023-05-10T20:59:09.387Z,13.45
2023-05-10T21:01:36.008Z,13.30
2023-05-10T21:04:03.289Z,13.13
2023-05-10T21:06:29.790Z,13.43
2023-05-10T21:08:56.441Z,13.27
2023-05-10T21:11:23.212Z,13.32
2023-05-10T21:13:50.047Z,13.57
2023-05-10T21:16:16.748Z,13.73
2023-05-10T21:18:43.375Z,13.48
2023-05-10T21:21:10.030Z,13.63
2023-05-10T21:23:36.572Z,14.02
2023-05-10T21:26:04.542Z,14.15
2023-05-10T21:28:31.298Z,14.13
2023-05-10T21:30:58.176Z,14.43
2023-05-10T21:33:24.683Z,14.07
2023-05-10T21:35:51.637Z,13.10
2023-05-10T21:38:18.174Z,13.93
2023-05-10T21:40:44.778Z,14.03
2023-05-10T21:43:11.397Z,14.18
2023-05-10T21:45:38.168Z,14.38
2023-05-10T21:48:05.085Z,14.05
2023-05-10T21:50:32.043Z,14.50
2023-05-10T21:52:58.521Z,13.47
2023-05-10T21:55:25.813Z,14.07
2023-05-10T21:57:52.559Z,14.70
2023-05-10T22:00:19.943Z,14.25
2023-05-10T22:02:47.131Z,15.38
2023-05-10T22:05:13.812Z,14.20
2023-05-10T22:07:40.527Z,14.73
2023-05-10T22:10:09.158Z,15.18
2023-05-10T22:12:35.888Z,15.05
2023-05-10T22:17:31.758Z,15.00
2023-05-10T22:19:58.412Z,14.45
2023-05-10T22:22:25.011Z,14.80
2023-05-10T22:24:51.541Z,14.75
2023-05-10T22:27:18.187Z,14.88
2023-05-10T22:29:44.723Z,14.87
2023-05-10T22:32:11.238Z,14.35
2023-05-10T22:34:37.873Z,14.25
2023-05-10T22:37:04.337Z,14.00
2023-05-10T22:39:30.754Z,14.65
2023-05-10T22:41:57.131Z,13.93
2023-05-10T22:44:23.766Z,14.25
2023-05-10T22:46:50.453Z,14.13
2023-05-10T22:49:17.097Z,14.70
2023-05-10T22:51:43.708Z,13.88
2023-05-10T22:54:10.348Z,13.67
2023-05-10T22:56:36.948Z,13.35
2023-05-10T22:59:03.462Z,14.95
2023-05-10T23:01:30.122Z,13.75
2023-05-10T23:03:56.955Z,14.43
2023-05-10T23:06:23.556Z,13.37
2023-05-10T23:08:50.243Z,13.52
2023-05-10T23:11:16.666Z,13.88
2023-05-10T23:13:43.104Z,13.45
2023-05-10T23:16:09.560Z,13.60
2023-05-10T23:18:36.145Z,13.17
2023-05-10T23:21:02.678Z,13.82
2023-05-10T23:23:29.294Z,13.48
2023-05-10T23:25:55.883Z,13.60
2023-05-10T23:28:22.537Z,14.77
2023-05-10T23:30:54.617Z,13.70
2023-05-10T23:33:21.160Z,13.77
2023-05-10T23:35:47.691Z,14.10
2023-05-10T23:38:14.423Z,13.65
2023-05-10T23:40:41.098Z,14.70
2023-05-10T23:43:07.765Z,14.00
2023-05-10T23:45:34.549Z,14.27
2023-05-10T23:48:01.478Z,13.95
2023-05-10T23:50:28.047Z,13.68
2023-05-10T23:52:54.472Z,13.93
2023-05-10T23:55:20.905Z,14.63
2023-05-10T23:57:47.391Z,14.35
